Time;durP1;ratioP1;P1;durP2;ratioP2;P2;SDS_P1;SDS_P2;PMS_P1;PMS_P2;Temp;Humidity;BMP_temperature;BMP_pressure;BME280_temperature;BME280_humidity;BME280_pressure;Samples;Min_cycle;Max_cycle;Signal;HPM_P1;HPM_P2
2023/10/05 00:06:13;;;;;;;;;;;13.30;99.90;;;;;;12563325;28;19924;-34
2023/10/05 00:12:34;;;;;;;;;;;13.30;99.90;;;;;;12582898;28;19933;-34
2023/10/05 00:18:57;;;;;;;;;;;13.30;99.90;;;;;;12587761;28;19931;-34
2023/10/05 00:25:23;;;;;;;;;;;13.30;99.90;;;;;;12576833;28;20415;-34
2023/10/05 00:31:44;;;;;;;;;;;13.30;99.90;;;;;;12576076;28;20276;-34
2023/10/05 00:38:12;;;;;;;;;;;13.30;99.90;;;;;;12582558;28;19977;-34
2023/10/05 00:44:28;;;;;;;;;;;13.30;99.90;;;;;;12554254;28;19971;-34
2023/10/05 00:50:36;;;;;;;;;;;13.40;99.90;;;;;;12577985;28;19925;-35
2023/10/05 00:56:48;;;;;;;;;;;13.40;99.90;;;;;;12580882;28;19924;-33
2023/10/05 01:16:19;;;;;;;;;;;13.30;99.90;;;;;;12534139;28;19929;-34
2023/10/05 01:22:39;;;;;;;;;;;13.40;99.90;;;;;;12574371;28;19968;-34
2023/10/05 01:28:52;;;;;;;;;;;13.30;99.90;;;;;;12557003;28;19928;-33
2023/10/05 01:35:08;;;;;;;;;;;13.30;99.90;;;;;;12571584;28;20016;-34
2023/10/05 01:41:21;;;;;;;;;;;13.30;99.90;;;;;;12573998;28;19932;-35
2023/10/05 01:47:29;;;;;;;;;;;13.30;99.90;;;;;;12564687;28;20031;-35
2023/10/05 01:53:44;;;;;;;;;;;13.30;99.90;;;;;;12565192;28;21183;-35
2023/10/05 01:59:55;;;;;;;;;;;13.40;99.90;;;;;;12548185;28;19928;-35
2023/10/05 02:06:07;;;;;;;;;;;13.40;99.90;;;;;;12565956;28;19925;-34
2023/10/05 02:12:17;;;;;;;;;;;13.40;99.90;;;;;;12555431;28;20109;-35
2023/10/05 02:18:34;;;;;;;;;;;13.50;99.90;;;;;;12569764;28;20023;-35
2023/10/05 02:24:43;;;;;;;;;;;13.50;99.90;;;;;;12569645;28;19928;-35
2023/10/05 02:30:59;;;;;;;;;;;13.50;99.90;;;;;;12569864;28;20554;-35
2023/10/05 02:37:12;;;;;;;;;;;13.50;99.90;;;;;;12565833;28;19973;-34
2023/10/05 02:43:28;;;;;;;;;;;13.50;99.90;;;;;;12567420;28;19931;-34
2023/10/05 02:49:35;;;;;;;;;;;13.40;99.90;;;;;;12564687;28;19940;-34
2023/10/05 02:55:43;;;;;;;;;;;13.50;99.90;;;;;;12567628;28;19932;-35
2023/10/05 03:01:48;;;;;;;;;;;13.40;99.90;;;;;;12555552;28;20003;-35
2023/10/05 03:07:54;;;;;;;;;;;13.40;99.90;;;;;;12570316;28;19935;-35
2023/10/05 03:13:59;;;;;;;;;;;13.40;99.90;;;;;;12559363;28;20408;-35
2023/10/05 03:20:06;;;;;;;;;;;13.30;99.90;;;;;;12556437;28;20047;-35
2023/10/05 03:26:13;;;;;;;;;;;13.20;99.90;;;;;;12566295;28;19929;-34
2023/10/05 03:32:18;;;;;;;;;;;13.30;99.90;;;;;;12557697;28;19929;-35
2023/10/05 03:38:22;;;;;;;;;;;13.20;99.90;;;;;;12558830;28;19933;-35
2023/10/05 03:44:24;;;;;;;;;;;13.20;99.90;;;;;;12564242;28;19959;-34
2023/10/05 03:50:29;;;;;;;;;;;13.20;99.90;;;;;;12549997;28;19933;-34
2023/10/05 03:56:31;;;;;;;;;;;13.20;99.90;;;;;;12569660;28;19982;-35
2023/10/05 04:02:33;;;;;;;;;;;13.20;99.90;;;;;;12563479;28;20376;-35
2023/10/05 04:08:35;;;;;;;;;;;13.20;99.90;;;;;;12541172;28;19963;-35
2023/10/05 04:14:38;;;;;;;;;;;13.20;99.90;;;;;;12566136;28;20384;-34
2023/10/05 04:20:50;;;;;;;;;;;13.20;99.90;;;;;;12559446;28;19932;-35
2023/10/05 04:26:55;;;;;;;;;;;13.10;99.90;;;;;;12558970;28;19928;-34
2023/10/05 04:32:57;;;;;;;;;;;13.20;99.90;;;;;;12550791;28;20414;-35
2023/10/05 04:38:58;;;;;;;;;;;13.20;99.90;;;;;;12552015;28;19933;-35
2023/10/05 04:45:07;;;;;;;;;;;13.20;99.90;;;;;;12550197;28;19928;-34
2023/10/05 04:51:13;;;;;;;;;;;13.20;99.90;;;;;;12542422;28;20475;-35
2023/10/05 04:57:34;;;;;;;;;;;13.20;99.90;;;;;;12531064;28;20304;-34
2023/10/05 05:03:51;;;;;;;;;;;13.20;99.90;;;;;;12520008;28;21285;-34
2023/10/05 05:09:55;;;;;;;;;;;13.10;99.90;;;;;;12556914;28;20340;-34
2023/10/05 05:15:57;;;;;;;;;;;13.00;99.90;;;;;;12557074;28;20397;-35
2023/10/05 05:22:08;;;;;;;;;;;12.90;99.90;;;;;;12542665;28;19928;-34
2023/10/05 05:28:10;;;;;;;;;;;12.80;99.90;;;;;;12528108;28;19959;-35
2023/10/05 05:34:13;;;;;;;;;;;12.70;99.90;;;;;;12555688;28;19933;-34
2023/10/05 05:40:15;;;;;;;;;;;12.70;99.90;;;;;;12544268;28;19930;-34
2023/10/05 05:46:17;;;;;;;;;;;12.70;99.90;;;;;;12545420;28;19939;-35
2023/10/05 05:52:19;;;;;;;;;;;12.70;99.90;;;;;;12551726;28;19924;-35
2023/10/05 05:58:21;;;;;;;;;;;12.80;99.90;;;;;;12548586;28;19932;-33
2023/10/05 06:04:25;;;;;;;;;;;12.70;99.90;;;;;;12528655;28;19982;-34
2023/10/05 06:10:28;;;;;;;;;;;12.80;99.90;;;;;;12471573;28;19939;-34
2023/10/05 06:16:33;;;;;;;;;;;12.80;99.90;;;;;;12534030;28;19935;-35
2023/10/05 06:22:37;;;;;;;;;;;12.80;99.90;;;;;;12546465;28;19929;-35
2023/10/05 06:28:39;;;;;;;;;;;13.00;99.90;;;;;;12519350;28;19928;-34
2023/10/05 06:34:41;;;;;;;;;;;12.90;99.90;;;;;;12551760;28;20600;-34
2023/10/05 06:40:42;;;;;;;;;;;12.90;99.90;;;;;;12545080;28;20381;-34
2023/10/05 06:46:44;;;;;;;;;;;13.00;99.90;;;;;;12542725;28;19929;-35
2023/10/05 06:52:46;;;;;;;;;;;13.00;99.90;;;;;;12552925;28;19929;-35
2023/10/05 06:58:49;;;;;;;;;;;13.00;99.90;;;;;;12544887;28;19928;-35
2023/10/05 07:04:50;;;;;;;;;;;13.00;99.90;;;;;;12517657;28;20048;-35
2023/10/05 07:10:53;;;;;;;;;;;13.10;99.90;;;;;;12545106;28;20032;-35
2023/10/05 07:16:55;;;;;;;;;;;13.20;99.90;;;;;;12549690;28;19997;-35
2023/10/05 07:22:57;;;;;;;;;;;13.30;99.90;;;;;;12542802;28;19941;-35
2023/10/05 07:28:59;;;;;;;;;;;13.60;99.90;;;;;;12533856;28;20044;-35
2023/10/05 07:35:01;;;;;;;;;;;13.60;99.90;;;;;;12529518;28;19943;-35
2023/10/05 07:41:05;;;;;;;;;;;13.70;99.90;;;;;;12532687;28;19935;-35
2023/10/05 07:47:06;;;;;;;;;;;13.80;99.90;;;;;;12543910;28;19932;-35
2023/10/05 07:53:09;;;;;;;;;;;14.00;99.90;;;;;;12534426;28;20343;-35
2023/10/05 07:59:13;;;;;;;;;;;14.00;99.90;;;;;;12557313;28;20408;-35
2023/10/05 08:05:15;;;;;;;;;;;14.20;99.90;;;;;;12514627;28;20220;-35
2023/10/05 08:11:18;;;;;;;;;;;14.40;99.90;;;;;;12553982;28;19940;-35
2023/10/05 08:17:20;;;;;;;;;;;14.40;99.90;;;;;;12553755;28;19937;-35
2023/10/05 08:23:22;;;;;;;;;;;14.50;99.90;;;;;;12553951;28;19933;-35
2023/10/05 08:29:26;;;;;;;;;;;14.60;99.90;;;;;;12553751;28;19933;-35
2023/10/05 08:35:27;;;;;;;;;;;14.70;99.90;;;;;;12546531;28;20419;-35
2023/10/05 08:41:32;;;;;;;;;;;14.70;99.90;;;;;;12537416;28;19928;-35
2023/10/05 08:47:36;;;;;;;;;;;14.80;99.90;;;;;;12554611;28;20003;-34
2023/10/05 08:53:55;;;;;;;;;;;15.00;99.90;;;;;;12554157;28;20318;-35
2023/10/05 08:59:57;;;;;;;;;;;15.10;99.90;;;;;;12542628;28;19932;-35
2023/10/05 09:06:13;;;;;;;;;;;15.00;99.90;;;;;;12525664;28;19932;-35
2023/10/05 09:12:16;;;;;;;;;;;15.20;99.90;;;;;;12554623;28;19928;-34
2023/10/05 09:18:18;;;;;;;;;;;15.10;99.90;;;;;;12552003;28;19995;-35
2023/10/05 09:24:20;;;;;;;;;;;14.90;99.90;;;;;;12533077;28;20202;-35
2023/10/05 09:30:22;;;;;;;;;;;14.90;99.90;;;;;;12536867;28;19930;-35
2023/10/05 09:36:25;;;;;;;;;;;14.90;99.90;;;;;;12544614;28;19932;-35
2023/10/05 09:42:27;;;;;;;;;;;15.20;99.90;;;;;;12551938;28;19975;-35
2023/10/05 09:48:31;;;;;;;;;;;15.20;99.90;;;;;;12546551;28;19955;-35
2023/10/05 09:54:33;;;;;;;;;;;15.30;99.90;;;;;;12551610;28;19929;-35
2023/10/05 10:06:53;;;;;;;;;;;15.30;99.90;;;;;;12513193;28;19932;-35
2023/10/05 10:12:55;;;;;;;;;;;15.10;99.90;;;;;;12550323;28;19928;-35
2023/10/05 10:19:08;;;;;;;;;;;15.20;99.90;;;;;;12551214;28;20347;-35
2023/10/05 10:25:28;;;;;;;;;;;15.20;99.90;;;;;;12553753;28;19948;-35
2023/10/05 10:31:30;;;;;;;;;;;15.00;99.90;;;;;;12549519;28;19929;-34
2023/10/05 10:37:44;;;;;;;;;;;15.10;99.90;;;;;;12535826;28;20415;-35
2023/10/05 10:43:53;;;;;;;;;;;15.20;99.90;;;;;;12552830;28;20549;-34
2023/10/05 10:49:59;;;;;;;;;;;15.20;99.90;;;;;;12552190;28;19971;-34
2023/10/05 10:56:27;;;;;;;;;;;15.40;99.90;;;;;;12554158;28;20421;-35
2023/10/05 11:02:42;;;;;;;;;;;15.40;99.90;;;;;;12523558;28;19934;-35
2023/10/05 11:09:10;;;;;;;;;;;15.50;99.90;;;;;;12509890;28;20393;-35
2023/10/05 11:15:30;;;;;;;;;;;15.50;99.90;;;;;;12526129;28;19969;-34
2023/10/05 11:22:04;;;;;;;;;;;15.50;99.90;;;;;;12519880;28;19933;-34
2023/10/05 11:28:25;;;;;;;;;;;15.50;99.90;;;;;;12526684;28;20015;-34
2023/10/05 11:34:38;;;;;;;;;;;15.60;99.90;;;;;;12536907;28;20405;-35
2023/10/05 11:41:16;;;;;;;;;;;15.60;99.90;;;;;;12532709;28;19972;-35
2023/10/05 11:47:53;;;;;;;;;;;15.80;99.90;;;;;;12534346;28;19932;-34
2023/10/05 11:54:10;;;;;;;;;;;15.90;99.90;;;;;;12513346;28;20032;-35
2023/10/05 12:00:31;;;;;;;;;;;16.10;81.10;;;;;;12535024;28;19933;-35
2023/10/05 12:06:45;;;;;;;;;;;16.60;99.90;;;;;;12544422;28;19978;-35
2023/10/05 12:13:03;;;;;;;;;;;16.60;92.60;;;;;;12572364;28;19938;-34
2023/10/05 12:19:27;;;;;;;;;;;16.40;67.70;;;;;;12574696;28;20016;-34
2023/10/05 12:25:53;;;;;;;;;;;16.10;62.30;;;;;;12569920;28;19925;-35
2023/10/05 12:32:13;;;;;;;;;;;16.20;68.00;;;;;;12577308;28;19928;-34
2023/10/05 12:38:26;;;;;;;;;;;16.30;99.90;;;;;;12575689;28;19929;-34
2023/10/05 12:44:40;;;;;;;;;;;16.20;99.90;;;;;;12568721;28;19928;-34
2023/10/05 12:51:05;;;;;;;;;;;16.00;98.80;;;;;;12577556;28;19990;-35
2023/10/05 12:57:30;;;;;;;;;;;16.00;99.90;;;;;;12556408;28;19925;-35
2023/10/05 13:03:53;;;;;;;;;;;15.80;99.90;;;;;;12558591;28;19956;-34
2023/10/05 13:10:37;;;;;;;;;;;15.90;99.90;;;;;;12561522;28;19978;-34
2023/10/05 13:16:56;;;;;;;;;;;16.00;99.90;;;;;;12577037;28;19928;-35
2023/10/05 13:23:15;;;;;;;;;;;16.00;99.90;;;;;;12563737;28;19928;-34
2023/10/05 13:29:42;;;;;;;;;;;15.90;93.70;;;;;;12564264;28;19961;-35
2023/10/05 13:36:05;;;;;;;;;;;15.90;79.10;;;;;;12577495;28;19956;-34
2023/10/05 13:42:35;;;;;;;;;;;15.90;81.90;;;;;;12574396;28;19925;-35
2023/10/05 13:49:01;;;;;;;;;;;16.00;95.00;;;;;;12568224;28;20368;-35
2023/10/05 13:55:20;;;;;;;;;;;16.00;62.30;;;;;;12557728;28;20000;-35
2023/10/05 14:01:42;;;;;;;;;;;16.20;82.80;;;;;;12559999;28;19932;-35
2023/10/05 14:07:58;;;;;;;;;;;16.30;90.30;;;;;;12563493;28;20299;-35
2023/10/05 14:14:19;;;;;;;;;;;16.50;94.10;;;;;;12624247;28;20057;-35
2023/10/05 14:20:38;;;;;;;;;;;16.40;79.50;;;;;;12623889;28;19932;-35
2023/10/05 14:26:54;;;;;;;;;;;16.50;99.90;;;;;;12616578;28;19936;-35
2023/10/05 14:33:22;;;;;;;;;;;16.50;82.60;;;;;;12619583;28;19969;-35
2023/10/05 14:39:40;;;;;;;;;;;16.30;87.50;;;;;;12627720;28;19975;-35
2023/10/05 14:45:58;;;;;;;;;;;16.30;93.00;;;;;;12618665;28;19928;-35
2023/10/05 14:52:23;;;;;;;;;;;16.30;99.90;;;;;;12626129;28;20372;-34
2023/10/05 14:58:48;;;;;;;;;;;16.40;99.90;;;;;;12618325;28;20301;-35
2023/10/05 15:05:17;;;;;;;;;;;16.50;99.50;;;;;;12577785;28;19928;-35
2023/10/05 15:11:48;;;;;;;;;;;16.60;99.90;;;;;;12574048;28;19928;-35
2023/10/05 15:18:16;;;;;;;;;;;16.60;64.70;;;;;;12575781;28;19924;-34
2023/10/05 15:24:42;;;;;;;;;;;16.40;84.90;;;;;;12563783;28;20420;-35
2023/10/05 15:30:55;;;;;;;;;;;16.30;75.60;;;;;;12584283;28;19925;-35
2023/10/05 15:37:14;;;;;;;;;;;16.20;90.70;;;;;;12571165;28;20032;-35
2023/10/05 15:43:36;;;;;;;;;;;16.00;99.90;;;;;;12574129;28;19960;-35
2023/10/05 15:50:13;;;;;;;;;;;16.00;99.90;;;;;;12559346;28;19973;-35
2023/10/05 15:56:34;;;;;;;;;;;16.00;99.90;;;;;;12572272;28;19961;-34
2023/10/05 16:02:58;;;;;;;;;;;15.90;99.90;;;;;;12605143;28;19990;-35
2023/10/05 16:09:15;;;;;;;;;;;15.90;99.90;;;;;;12518017;28;19931;-34
2023/10/05 16:15:38;;;;;;;;;;;15.90;99.90;;;;;;12513306;28;19940;-35
2023/10/05 16:21:51;;;;;;;;;;;15.90;99.90;;;;;;12510181;28;19937;-35
2023/10/05 16:28:07;;;;;;;;;;;15.80;99.90;;;;;;12507691;28;19932;-35
2023/10/05 16:34:23;;;;;;;;;;;15.70;99.90;;;;;;12508634;28;19929;-35
2023/10/05 16:40:41;;;;;;;;;;;15.60;99.90;;;;;;12525495;28;19924;-35
2023/10/05 16:46:55;;;;;;;;;;;15.60;99.90;;;;;;12518047;28;19932;-35
2023/10/05 16:53:12;;;;;;;;;;;15.60;99.90;;;;;;12509222;28;20007;-35
2023/10/05 16:59:36;;;;;;;;;;;15.50;99.90;;;;;;12526970;28;20472;-34
2023/10/05 17:05:57;;;;;;;;;;;15.50;99.90;;;;;;12548511;28;19936;-35
2023/10/05 17:12:23;;;;;;;;;;;15.40;99.90;;;;;;12562232;28;19928;-34
2023/10/05 17:18:52;;;;;;;;;;;15.50;99.90;;;;;;12579269;28;19928;-35
2023/10/05 17:25:16;;;;;;;;;;;15.40;99.90;;;;;;12577911;28;20293;-35
2023/10/05 17:31:44;;;;;;;;;;;15.40;99.90;;;;;;12562955;28;19925;-35
2023/10/05 17:38:15;;;;;;;;;;;15.40;99.90;;;;;;12571181;28;19972;-35
2023/10/05 17:44:56;;;;;;;;;;;15.30;99.90;;;;;;12575533;28;19935;-35
2023/10/05 17:51:25;;;;;;;;;;;15.20;99.90;;;;;;12567418;28;20400;-35
2023/10/05 17:57:48;;;;;;;;;;;15.30;99.90;;;;;;12574819;28;19928;-35
2023/10/05 18:04:10;;;;;;;;;;;15.20;99.90;;;;;;12561201;28;19982;-35
2023/10/05 18:10:29;;;;;;;;;;;15.10;99.90;;;;;;12598202;28;19928;-35
2023/10/05 18:16:51;;;;;;;;;;;15.20;99.90;;;;;;12615472;28;20338;-35
2023/10/05 18:23:18;;;;;;;;;;;15.20;99.90;;;;;;12620551;28;19928;-35
2023/10/05 18:29:50;;;;;;;;;;;15.20;99.90;;;;;;12620025;28;19969;-34
2023/10/05 18:36:11;;;;;;;;;;;15.20;99.90;;;;;;12629493;28;20279;-35
2023/10/05 18:42:43;;;;;;;;;;;15.10;99.90;;;;;;12626973;28;20348;-35
2023/10/05 18:49:03;;;;;;;;;;;15.20;99.90;;;;;;12625323;28;19970;-35
2023/10/05 18:55:13;;;;;;;;;;;15.20;99.90;;;;;;12612889;28;19976;-34
2023/10/05 19:01:38;;;;;;;;;;;15.20;99.90;;;;;;12625593;28;19931;-34
2023/10/05 19:07:55;;;;;;;;;;;15.10;99.90;;;;;;12586375;28;19924;-34
2023/10/05 19:14:19;;;;;;;;;;;15.00;99.90;;;;;;12570056;28;20012;-35
2023/10/05 19:20:39;;;;;;;;;;;15.10;99.90;;;;;;12563246;28;19988;-34
2023/10/05 19:26:59;;;;;;;;;;;15.10;99.90;;;;;;12562456;28;20035;-35
2023/10/05 19:33:19;;;;;;;;;;;15.10;99.90;;;;;;12574149;28;19958;-35
2023/10/05 19:39:38;;;;;;;;;;;15.10;99.90;;;;;;12570021;28;20292;-35
2023/10/05 19:46:00;;;;;;;;;;;15.00;99.90;;;;;;12559648;28;19979;-35
2023/10/05 19:52:19;;;;;;;;;;;15.00;99.90;;;;;;12589334;28;19931;-35
2023/10/05 19:58:42;;;;;;;;;;;15.00;99.90;;;;;;12585321;28;19963;-35
2023/10/05 20:05:04;;;;;;;;;;;15.00;99.90;;;;;;12579815;28;19975;-34
2023/10/05 20:11:20;;;;;;;;;;;14.90;99.90;;;;;;12568069;28;20380;-34
2023/10/05 20:17:39;;;;;;;;;;;15.00;99.90;;;;;;12582403;28;20404;-34
2023/10/05 20:23:57;;;;;;;;;;;14.90;99.90;;;;;;12579402;28;20016;-35
2023/10/05 20:30:18;;;;;;;;;;;14.90;99.90;;;;;;12580457;28;19925;-34
2023/10/05 20:36:40;;;;;;;;;;;14.90;99.90;;;;;;12581116;28;20334;-35
2023/10/05 20:43:08;;;;;;;;;;;14.80;99.90;;;;;;12575020;28;19935;-34
2023/10/05 20:49:27;;;;;;;;;;;14.80;99.90;;;;;;12576348;28;19929;-35
2023/10/05 20:55:43;;;;;;;;;;;14.70;99.90;;;;;;12581860;28;20400;-35
2023/10/05 21:02:04;;;;;;;;;;;14.70;99.90;;;;;;12570346;28;20497;-35
2023/10/05 21:08:23;;;;;;;;;;;14.70;99.90;;;;;;12567002;28;19928;-34
2023/10/05 21:14:40;;;;;;;;;;;14.70;99.90;;;;;;12574494;28;20439;-35
2023/10/05 21:20:54;;;;;;;;;;;14.70;99.90;;;;;;12581350;28;20023;-35
2023/10/05 21:27:14;;;;;;;;;;;14.80;99.90;;;;;;12593832;28;19929;-35
2023/10/05 21:33:33;;;;;;;;;;;14.80;99.90;;;;;;12626119;28;20349;-35
2023/10/05 21:39:57;;;;;;;;;;;14.70;99.90;;;;;;12628794;28;19932;-34
2023/10/05 21:46:20;;;;;;;;;;;14.70;99.90;;;;;;12633602;28;19928;-34
2023/10/05 21:52:42;;;;;;;;;;;14.70;99.90;;;;;;12606573;28;20414;-35
2023/10/05 21:59:04;;;;;;;;;;;14.70;99.90;;;;;;12626799;28;19924;-35
2023/10/05 22:05:18;;;;;;;;;;;14.80;99.90;;;;;;12610807;28;19928;-34
2023/10/05 22:11:36;;;;;;;;;;;14.70;99.90;;;;;;12622709;28;20281;-35
2023/10/05 22:18:10;;;;;;;;;;;14.70;99.90;;;;;;12609233;28;21851;-34
2023/10/05 22:24:33;;;;;;;;;;;14.70;99.90;;;;;;12620802;28;19939;-34
2023/10/05 22:30:49;;;;;;;;;;;14.70;99.90;;;;;;12621911;28;20483;-35
2023/10/05 22:37:06;;;;;;;;;;;14.60;99.90;;;;;;12620471;28;19977;-35
2023/10/05 22:43:27;;;;;;;;;;;14.70;99.90;;;;;;12623801;28;19967;-35
2023/10/05 22:49:49;;;;;;;;;;;14.60;99.90;;;;;;12615973;28;20289;-34
2023/10/05 22:56:09;;;;;;;;;;;14.60;99.90;;;;;;12625292;28;19929;-35
2023/10/05 23:02:25;;;;;;;;;;;14.50;99.90;;;;;;12626537;28;19951;-34
2023/10/05 23:08:53;;;;;;;;;;;14.50;99.90;;;;;;12619683;28;20339;-35
2023/10/05 23:15:18;;;;;;;;;;;14.40;99.90;;;;;;12624662;28;19928;-34
2023/10/05 23:21:45;;;;;;;;;;;14.40;99.90;;;;;;12616653;28;20011;-35
2023/10/05 23:28:07;;;;;;;;;;;14.40;99.90;;;;;;12630760;28;19924;-34
2023/10/05 23:34:28;;;;;;;;;;;14.30;99.90;;;;;;12636127;28;19935;-35
2023/10/05 23:40:50;;;;;;;;;;;14.20;99.90;;;;;;12640450;28;19924;-34
2023/10/05 23:47:21;;;;;;;;;;;14.20;99.90;;;;;;12635669;28;19973;-35
2023/10/05 23:53:39;;;;;;;;;;;14.10;99.90;;;;;;12629754;28;19967;-34
2023/10/05 23:59:46;;;;;;;;;;;14.00;99.90;;;;;;12613489;28;19982;-46
